sensor_id;sensor_type;location;lat;lon;timestamp;P1;durP1;ratioP1;P2;durP2;ratioP2
29092;SDS011;16167;48.768;14.984;2022-09-09T00:00:11;4.55;;;2.47;;
29092;SDS011;16167;48.768;14.984;2022-09-09T00:02:40;3.03;;;2.10;;
29092;SDS011;16167;48.768;14.984;2022-09-09T00:05:16;2.50;;;2.30;;
29092;SDS011;16167;48.768;14.984;2022-09-09T00:07:54;3.35;;;2.67;;
29092;SDS011;16167;48.768;14.984;2022-09-09T00:10:28;2.72;;;2.33;;
29092;SDS011;16167;48.768;14.984;2022-09-09T00:13:01;3.00;;;2.50;;
29092;SDS011;16167;48.768;14.984;2022-09-09T00:15:38;6.72;;;2.75;;
29092;SDS011;16167;48.768;14.984;2022-09-09T00:18:13;3.83;;;2.35;;
29092;SDS011;16167;48.768;14.984;2022-09-09T00:20:49;2.30;;;2.10;;
29092;SDS011;16167;48.768;14.984;2022-09-09T00:23:27;3.53;;;2.40;;
29092;SDS011;16167;48.768;14.984;2022-09-09T00:25:59;3.55;;;2.58;;
29092;SDS011;16167;48.768;14.984;2022-09-09T00:28:33;2.50;;;2.28;;
29092;SDS011;16167;48.768;14.984;2022-09-09T00:31:09;5.00;;;2.38;;
29092;SDS011;16167;48.768;14.984;2022-09-09T00:33:40;2.33;;;2.13;;
29092;SDS011;16167;48.768;14.984;2022-09-09T00:36:12;3.83;;;2.72;;
29092;SDS011;16167;48.768;14.984;2022-09-09T00:38:45;3.65;;;2.53;;
29092;SDS011;16167;48.768;14.984;2022-09-09T00:41:18;3.70;;;2.67;;
29092;SDS011;16167;48.768;14.984;2022-09-09T00:43:52;2.40;;;2.20;;
29092;SDS011;16167;48.768;14.984;2022-09-09T00:49:32;2.50;;;2.30;;
29092;SDS011;16167;48.768;14.984;2022-09-09T00:54:48;2.63;;;2.40;;
29092;SDS011;16167;48.768;14.984;2022-09-09T00:57:23;4.18;;;2.60;;
29092;SDS011;16167;48.768;14.984;2022-09-09T00:59:56;3.63;;;2.60;;
29092;SDS011;16167;48.768;14.984;2022-09-09T01:02:31;3.40;;;2.75;;
29092;SDS011;16167;48.768;14.984;2022-09-09T01:05:09;3.92;;;3.38;;
29092;SDS011;16167;48.768;14.984;2022-09-09T01:07:44;6.47;;;3.13;;
29092;SDS011;16167;48.768;14.984;2022-09-09T01:10:17;3.05;;;2.80;;
29092;SDS011;16167;48.768;14.984;2022-09-09T01:12:53;3.22;;;2.92;;
29092;SDS011;16167;48.768;14.984;2022-09-09T01:15:24;3.28;;;2.95;;
29092;SDS011;16167;48.768;14.984;2022-09-09T01:17:58;5.13;;;3.45;;
29092;SDS011;16167;48.768;14.984;2022-09-09T01:20:29;2.90;;;2.70;;
29092;SDS011;16167;48.768;14.984;2022-09-09T01:23:19;4.43;;;2.78;;
29092;SDS011;16167;48.768;14.984;2022-09-09T01:26:13;3.03;;;2.08;;
29092;SDS011;16167;48.768;14.984;2022-09-09T01:28:47;3.30;;;2.55;;
29092;SDS011;16167;48.768;14.984;2022-09-09T01:36:15;3.10;;;2.00;;
29092;SDS011;16167;48.768;14.984;2022-09-09T01:38:48;3.70;;;2.67;;
29092;SDS011;16167;48.768;14.984;2022-09-09T01:41:18;2.92;;;2.72;;
29092;SDS011;16167;48.768;14.984;2022-09-09T01:43:46;2.90;;;2.63;;
29092;SDS011;16167;48.768;14.984;2022-09-09T01:46:15;2.70;;;2.50;;
29092;SDS011;16167;48.768;14.984;2022-09-09T01:48:44;3.20;;;3.00;;
29092;SDS011;16167;48.768;14.984;2022-09-09T01:51:13;3.17;;;2.83;;
29092;SDS011;16167;48.768;14.984;2022-09-09T01:53:41;3.50;;;2.87;;
29092;SDS011;16167;48.768;14.984;2022-09-09T01:56:14;2.78;;;2.58;;
29092;SDS011;16167;48.768;14.984;2022-09-09T01:59:07;3.08;;;2.88;;
29092;SDS011;16167;48.768;14.984;2022-09-09T02:01:53;3.20;;;2.90;;
29092;SDS011;16167;48.768;14.984;2022-09-09T02:04:31;3.33;;;2.45;;
29092;SDS011;16167;48.768;14.984;2022-09-09T02:07:06;3.25;;;2.88;;
29092;SDS011;16167;48.768;14.984;2022-09-09T02:09:40;2.35;;;2.20;;
29092;SDS011;16167;48.768;14.984;2022-09-09T02:12:15;3.22;;;2.65;;
29092;SDS011;16167;48.768;14.984;2022-09-09T02:14:47;3.97;;;2.30;;
29092;SDS011;16167;48.768;14.984;2022-09-09T02:17:28;3.90;;;2.90;;
29092;SDS011;16167;48.768;14.984;2022-09-09T02:19:59;4.18;;;3.63;;
29092;SDS011;16167;48.768;14.984;2022-09-09T02:22:32;3.53;;;3.22;;
29092;SDS011;16167;48.768;14.984;2022-09-09T02:25:02;4.30;;;3.67;;
29092;SDS011;16167;48.768;14.984;2022-09-09T02:30:02;5.00;;;4.25;;
29092;SDS011;16167;48.768;14.984;2022-09-09T02:32:32;4.00;;;3.70;;
29092;SDS011;16167;48.768;14.984;2022-09-09T02:35:03;4.32;;;3.95;;
29092;SDS011;16167;48.768;14.984;2022-09-09T02:37:36;4.45;;;4.05;;
29092;SDS011;16167;48.768;14.984;2022-09-09T02:40:06;4.55;;;4.07;;
29092;SDS011;16167;48.768;14.984;2022-09-09T02:42:39;5.10;;;4.20;;
29092;SDS011;16167;48.768;14.984;2022-09-09T02:45:08;4.05;;;3.75;;
29092;SDS011;16167;48.768;14.984;2022-09-09T02:47:38;4.07;;;3.75;;
29092;SDS011;16167;48.768;14.984;2022-09-09T02:50:12;3.63;;;3.33;;
29092;SDS011;16167;48.768;14.984;2022-09-09T02:52:45;3.30;;;3.00;;
29092;SDS011;16167;48.768;14.984;2022-09-09T02:55:22;4.03;;;3.72;;
29092;SDS011;16167;48.768;14.984;2022-09-09T02:57:54;4.57;;;3.20;;
29092;SDS011;16167;48.768;14.984;2022-09-09T03:00:24;4.95;;;3.50;;
29092;SDS011;16167;48.768;14.984;2022-09-09T03:02:52;4.45;;;3.05;;
29092;SDS011;16167;48.768;14.984;2022-09-09T03:05:21;3.13;;;2.92;;
29092;SDS011;16167;48.768;14.984;2022-09-09T03:07:49;4.20;;;3.90;;
29092;SDS011;16167;48.768;14.984;2022-09-09T03:10:17;5.78;;;3.42;;
29092;SDS011;16167;48.768;14.984;2022-09-09T03:12:45;5.18;;;3.58;;
29092;SDS011;16167;48.768;14.984;2022-09-09T03:15:15;3.97;;;3.60;;
29092;SDS011;16167;48.768;14.984;2022-09-09T03:17:43;3.90;;;3.60;;
29092;SDS011;16167;48.768;14.984;2022-09-09T03:20:12;4.43;;;4.00;;
29092;SDS011;16167;48.768;14.984;2022-09-09T03:22:40;4.13;;;3.45;;
29092;SDS011;16167;48.768;14.984;2022-09-09T03:25:10;5.72;;;3.85;;
29092;SDS011;16167;48.768;14.984;2022-09-09T03:27:38;4.05;;;3.70;;
29092;SDS011;16167;48.768;14.984;2022-09-09T03:30:07;5.05;;;3.63;;
29092;SDS011;16167;48.768;14.984;2022-09-09T03:32:36;3.90;;;3.60;;
29092;SDS011;16167;48.768;14.984;2022-09-09T03:35:05;5.40;;;4.45;;
29092;SDS011;16167;48.768;14.984;2022-09-09T03:37:34;4.97;;;3.70;;
29092;SDS011;16167;48.768;14.984;2022-09-09T03:40:02;3.45;;;3.15;;
29092;SDS011;16167;48.768;14.984;2022-09-09T03:42:30;4.70;;;4.30;;
29092;SDS011;16167;48.768;14.984;2022-09-09T03:44:58;6.45;;;4.32;;
29092;SDS011;16167;48.768;14.984;2022-09-09T03:47:26;4.10;;;3.33;;
29092;SDS011;16167;48.768;14.984;2022-09-09T03:49:56;3.72;;;3.20;;
29092;SDS011;16167;48.768;14.984;2022-09-09T03:52:24;4.68;;;3.78;;
29092;SDS011;16167;48.768;14.984;2022-09-09T03:54:52;4.00;;;3.70;;
29092;SDS011;16167;48.768;14.984;2022-09-09T03:57:23;3.70;;;3.40;;
29092;SDS011;16167;48.768;14.984;2022-09-09T03:59:51;4.05;;;3.75;;
29092;SDS011;16167;48.768;14.984;2022-09-09T04:02:19;3.90;;;3.33;;
29092;SDS011;16167;48.768;14.984;2022-09-09T04:04:47;5.13;;;4.63;;
29092;SDS011;16167;48.768;14.984;2022-09-09T04:07:17;3.67;;;3.30;;
29092;SDS011;16167;48.768;14.984;2022-09-09T04:09:44;4.50;;;3.90;;
29092;SDS011;16167;48.768;14.984;2022-09-09T04:12:12;3.88;;;3.58;;
29092;SDS011;16167;48.768;14.984;2022-09-09T04:14:41;3.85;;;3.55;;
29092;SDS011;16167;48.768;14.984;2022-09-09T04:17:08;4.65;;;4.25;;
29092;SDS011;16167;48.768;14.984;2022-09-09T04:19:37;4.47;;;3.72;;
29092;SDS011;16167;48.768;14.984;2022-09-09T04:22:05;5.78;;;4.63;;
29092;SDS011;16167;48.768;14.984;2022-09-09T04:24:34;5.18;;;4.68;;
29092;SDS011;16167;48.768;14.984;2022-09-09T04:29:30;5.00;;;4.47;;
29092;SDS011;16167;48.768;14.984;2022-09-09T04:31:59;4.38;;;3.97;;
29092;SDS011;16167;48.768;14.984;2022-09-09T04:34:28;6.25;;;4.10;;
29092;SDS011;16167;48.768;14.984;2022-09-09T04:36:56;4.97;;;4.47;;
29092;SDS011;16167;48.768;14.984;2022-09-09T04:39:25;10.73;;;6.95;;
29092;SDS011;16167;48.768;14.984;2022-09-09T04:41:54;12.43;;;7.93;;
29092;SDS011;16167;48.768;14.984;2022-09-09T04:46:50;7.45;;;5.07;;
29092;SDS011;16167;48.768;14.984;2022-09-09T04:49:18;5.25;;;4.75;;
29092;SDS011;16167;48.768;14.984;2022-09-09T04:51:48;7.68;;;4.47;;
29092;SDS011;16167;48.768;14.984;2022-09-09T04:54:16;5.43;;;4.90;;
29092;SDS011;16167;48.768;14.984;2022-09-09T04:56:45;4.78;;;4.30;;
29092;SDS011;16167;48.768;14.984;2022-09-09T04:59:14;5.25;;;4.75;;
29092;SDS011;16167;48.768;14.984;2022-09-09T05:01:42;5.00;;;4.00;;
29092;SDS011;16167;48.768;14.984;2022-09-09T05:04:10;4.57;;;4.18;;
29092;SDS011;16167;48.768;14.984;2022-09-09T05:06:38;5.03;;;4.35;;
29092;SDS011;16167;48.768;14.984;2022-09-09T05:09:06;5.35;;;3.90;;
29092;SDS011;16167;48.768;14.984;2022-09-09T05:11:34;6.72;;;4.10;;
29092;SDS011;16167;48.768;14.984;2022-09-09T05:14:04;4.63;;;4.10;;
29092;SDS011;16167;48.768;14.984;2022-09-09T05:16:33;5.15;;;4.68;;
29092;SDS011;16167;48.768;14.984;2022-09-09T05:19:01;6.40;;;4.50;;
29092;SDS011;16167;48.768;14.984;2022-09-09T05:21:30;6.30;;;4.25;;
29092;SDS011;16167;48.768;14.984;2022-09-09T05:23:58;6.40;;;4.65;;
29092;SDS011;16167;48.768;14.984;2022-09-09T05:26:28;4.53;;;4.00;;
29092;SDS011;16167;48.768;14.984;2022-09-09T05:28:57;6.47;;;4.30;;
29092;SDS011;16167;48.768;14.984;2022-09-09T05:31:26;4.10;;;3.45;;
29092;SDS011;16167;48.768;14.984;2022-09-09T05:33:58;7.97;;;4.30;;
29092;SDS011;16167;48.768;14.984;2022-09-09T05:36:26;5.97;;;4.47;;
29092;SDS011;16167;48.768;14.984;2022-09-09T05:38:54;7.20;;;3.72;;
29092;SDS011;16167;48.768;14.984;2022-09-09T05:41:22;4.10;;;3.70;;
29092;SDS011;16167;48.768;14.984;2022-09-09T05:43:50;4.68;;;3.78;;
29092;SDS011;16167;48.768;14.984;2022-09-09T05:46:19;4.57;;;4.05;;
29092;SDS011;16167;48.768;14.984;2022-09-09T05:48:49;4.90;;;3.72;;
29092;SDS011;16167;48.768;14.984;2022-09-09T05:51:19;8.40;;;3.90;;
29092;SDS011;16167;48.768;14.984;2022-09-09T05:53:48;5.45;;;3.90;;
29092;SDS011;16167;48.768;14.984;2022-09-09T05:56:18;4.10;;;3.25;;
29092;SDS011;16167;48.768;14.984;2022-09-09T05:58:48;4.05;;;3.60;;
29092;SDS011;16167;48.768;14.984;2022-09-09T06:01:18;6.82;;;4.07;;
29092;SDS011;16167;48.768;14.984;2022-09-09T06:03:48;4.80;;;3.88;;
29092;SDS011;16167;48.768;14.984;2022-09-09T06:08:49;3.95;;;3.30;;
29092;SDS011;16167;48.768;14.984;2022-09-09T06:11:19;4.45;;;3.55;;
29092;SDS011;16167;48.768;14.984;2022-09-09T06:13:48;6.22;;;4.07;;
29092;SDS011;16167;48.768;14.984;2022-09-09T06:16:20;7.00;;;3.83;;
29092;SDS011;16167;48.768;14.984;2022-09-09T06:18:50;11.80;;;4.22;;
29092;SDS011;16167;48.768;14.984;2022-09-09T06:21:22;5.95;;;3.75;;
29092;SDS011;16167;48.768;14.984;2022-09-09T06:23:51;4.25;;;3.30;;
29092;SDS011;16167;48.768;14.984;2022-09-09T06:26:25;4.18;;;3.78;;
29092;SDS011;16167;48.768;14.984;2022-09-09T06:28:55;4.55;;;3.45;;
29092;SDS011;16167;48.768;14.984;2022-09-09T06:31:24;7.50;;;3.70;;
29092;SDS011;16167;48.768;14.984;2022-09-09T06:33:57;5.93;;;4.40;;
29092;SDS011;16167;48.768;14.984;2022-09-09T06:36:27;4.13;;;3.70;;
29092;SDS011;16167;48.768;14.984;2022-09-09T06:38:57;3.45;;;3.15;;
29092;SDS011;16167;48.768;14.984;2022-09-09T06:41:26;3.38;;;2.95;;
29092;SDS011;16167;48.768;14.984;2022-09-09T06:43:56;3.67;;;3.30;;
29092;SDS011;16167;48.768;14.984;2022-09-09T06:46:25;5.25;;;3.17;;
29092;SDS011;16167;48.768;14.984;2022-09-09T06:48:54;3.80;;;3.08;;
29092;SDS011;16167;48.768;14.984;2022-09-09T06:51:25;3.35;;;2.90;;
29092;SDS011;16167;48.768;14.984;2022-09-09T06:53:56;7.60;;;2.45;;
29092;SDS011;16167;48.768;14.984;2022-09-09T06:58:54;4.93;;;2.58;;
29092;SDS011;16167;48.768;14.984;2022-09-09T07:01:25;4.05;;;2.38;;
29092;SDS011;16167;48.768;14.984;2022-09-09T07:03:55;2.88;;;2.22;;
29092;SDS011;16167;48.768;14.984;2022-09-09T07:06:25;5.28;;;2.22;;
29092;SDS011;16167;48.768;14.984;2022-09-09T07:08:57;3.88;;;2.42;;
29092;SDS011;16167;48.768;14.984;2022-09-09T07:11:27;4.03;;;2.15;;
29092;SDS011;16167;48.768;14.984;2022-09-09T07:13:57;3.63;;;2.15;;
29092;SDS011;16167;48.768;14.984;2022-09-09T07:16:26;4.75;;;2.03;;
29092;SDS011;16167;48.768;14.984;2022-09-09T07:18:55;1.92;;;1.70;;
29092;SDS011;16167;48.768;14.984;2022-09-09T07:21:24;5.53;;;1.80;;
29092;SDS011;16167;48.768;14.984;2022-09-09T07:23:54;2.58;;;1.88;;
29092;SDS011;16167;48.768;14.984;2022-09-09T07:26:24;2.22;;;1.45;;
29092;SDS011;16167;48.768;14.984;2022-09-09T07:28:53;3.22;;;1.90;;
29092;SDS011;16167;48.768;14.984;2022-09-09T07:31:23;2.75;;;1.38;;
29092;SDS011;16167;48.768;14.984;2022-09-09T07:33:53;4.10;;;1.67;;
29092;SDS011;16167;48.768;14.984;2022-09-09T07:36:22;2.03;;;1.83;;
29092;SDS011;16167;48.768;14.984;2022-09-09T07:39:00;2.58;;;1.58;;
29092;SDS011;16167;48.768;14.984;2022-09-09T07:41:31;6.07;;;2.08;;
29092;SDS011;16167;48.768;14.984;2022-09-09T07:44:03;3.08;;;1.92;;
29092;SDS011;16167;48.768;14.984;2022-09-09T07:46:32;2.63;;;2.03;;
29092;SDS011;16167;48.768;14.984;2022-09-09T07:49:01;6.13;;;2.03;;
29092;SDS011;16167;48.768;14.984;2022-09-09T07:51:31;2.45;;;1.85;;
29092;SDS011;16167;48.768;14.984;2022-09-09T07:54:03;3.47;;;2.05;;
29092;SDS011;16167;48.768;14.984;2022-09-09T07:56:33;1.48;;;1.30;;
29092;SDS011;16167;48.768;14.984;2022-09-09T07:59:01;1.65;;;1.55;;
29092;SDS011;16167;48.768;14.984;2022-09-09T08:01:31;3.67;;;1.70;;
29092;SDS011;16167;48.768;14.984;2022-09-09T08:04:03;1.48;;;1.38;;
29092;SDS011;16167;48.768;14.984;2022-09-09T08:06:34;2.75;;;1.52;;
29092;SDS011;16167;48.768;14.984;2022-09-09T08:09:06;2.55;;;1.45;;
29092;SDS011;16167;48.768;14.984;2022-09-09T08:11:35;2.60;;;1.13;;
29092;SDS011;16167;48.768;14.984;2022-09-09T08:14:04;1.50;;;1.40;;
29092;SDS011;16167;48.768;14.984;2022-09-09T08:16:34;1.80;;;1.70;;
29092;SDS011;16167;48.768;14.984;2022-09-09T08:19:04;2.30;;;1.50;;
29092;SDS011;16167;48.768;14.984;2022-09-09T08:21:34;3.45;;;1.98;;
29092;SDS011;16167;48.768;14.984;2022-09-09T08:24:08;3.85;;;2.13;;
29092;SDS011;16167;48.768;14.984;2022-09-09T08:26:38;1.63;;;1.52;;
29092;SDS011;16167;48.768;14.984;2022-09-09T08:29:08;1.70;;;1.60;;
29092;SDS011;16167;48.768;14.984;2022-09-09T08:31:38;2.97;;;1.65;;
29092;SDS011;16167;48.768;14.984;2022-09-09T08:36:36;3.87;;;1.70;;
29092;SDS011;16167;48.768;14.984;2022-09-09T08:39:06;1.77;;;1.65;;
29092;SDS011;16167;48.768;14.984;2022-09-09T08:41:50;1.90;;;1.48;;
29092;SDS011;16167;48.768;14.984;2022-09-09T08:44:37;4.32;;;1.67;;
29092;SDS011;16167;48.768;14.984;2022-09-09T08:47:19;2.33;;;1.45;;
29092;SDS011;16167;48.768;14.984;2022-09-09T08:50:02;2.97;;;1.67;;
29092;SDS011;16167;48.768;14.984;2022-09-09T08:52:41;3.05;;;1.98;;
29092;SDS011;16167;48.768;14.984;2022-09-09T08:55:22;2.85;;;1.85;;
29092;SDS011;16167;48.768;14.984;2022-09-09T08:57:55;4.03;;;1.95;;
29092;SDS011;16167;48.768;14.984;2022-09-09T09:00:28;2.05;;;1.90;;
29092;SDS011;16167;48.768;14.984;2022-09-09T09:03:06;2.67;;;1.70;;
29092;SDS011;16167;48.768;14.984;2022-09-09T09:05:44;3.13;;;2.22;;
29092;SDS011;16167;48.768;14.984;2022-09-09T09:08:17;2.60;;;1.60;;
29092;SDS011;16167;48.768;14.984;2022-09-09T09:10:56;2.50;;;1.73;;
29092;SDS011;16167;48.768;14.984;2022-09-09T09:13:26;1.70;;;1.60;;
29092;SDS011;16167;48.768;14.984;2022-09-09T09:16:11;2.00;;;1.80;;
29092;SDS011;16167;48.768;14.984;2022-09-09T09:18:46;3.00;;;1.92;;
29092;SDS011;16167;48.768;14.984;2022-09-09T09:21:15;2.83;;;2.15;;
29092;SDS011;16167;48.768;14.984;2022-09-09T09:23:49;2.00;;;1.80;;
29092;SDS011;16167;48.768;14.984;2022-09-09T09:26:25;2.28;;;1.77;;
29092;SDS011;16167;48.768;14.984;2022-09-09T09:28:58;2.78;;;1.80;;
29092;SDS011;16167;48.768;14.984;2022-09-09T09:31:29;2.33;;;2.00;;
29092;SDS011;16167;48.768;14.984;2022-09-09T09:33:58;4.13;;;2.20;;
29092;SDS011;16167;48.768;14.984;2022-09-09T09:36:33;1.80;;;1.70;;
29092;SDS011;16167;48.768;14.984;2022-09-09T09:39:05;1.73;;;1.63;;
29092;SDS011;16167;48.768;14.984;2022-09-09T09:41:54;2.88;;;1.30;;
29092;SDS011;16167;48.768;14.984;2022-09-09T09:44:25;2.75;;;1.50;;
29092;SDS011;16167;48.768;14.984;2022-09-09T09:47:05;2.28;;;1.40;;
29092;SDS011;16167;48.768;14.984;2022-09-09T09:49:34;1.50;;;1.40;;
29092;SDS011;16167;48.768;14.984;2022-09-09T09:52:04;1.23;;;1.10;;
29092;SDS011;16167;48.768;14.984;2022-09-09T09:54:36;2.53;;;1.67;;
29092;SDS011;16167;48.768;14.984;2022-09-09T09:57:11;3.40;;;1.75;;
29092;SDS011;16167;48.768;14.984;2022-09-09T09:59:41;2.35;;;1.67;;
29092;SDS011;16167;48.768;14.984;2022-09-09T10:02:14;3.65;;;1.92;;
29092;SDS011;16167;48.768;14.984;2022-09-09T10:04:44;1.73;;;1.60;;
29092;SDS011;16167;48.768;14.984;2022-09-09T10:07:13;1.65;;;1.55;;
29092;SDS011;16167;48.768;14.984;2022-09-09T10:09:46;2.40;;;1.50;;
29092;SDS011;16167;48.768;14.984;2022-09-09T10:12:23;1.67;;;1.40;;
29092;SDS011;16167;48.768;14.984;2022-09-09T10:15:07;2.45;;;1.60;;
29092;SDS011;16167;48.768;14.984;2022-09-09T10:17:54;2.15;;;1.30;;
29092;SDS011;16167;48.768;14.984;2022-09-09T10:20:32;2.08;;;1.50;;
29092;SDS011;16167;48.768;14.984;2022-09-09T10:23:11;1.42;;;1.30;;
29092;SDS011;16167;48.768;14.984;2022-09-09T10:29:01;1.23;;;1.02;;
29092;SDS011;16167;48.768;14.984;2022-09-09T10:31:51;1.30;;;1.00;;
29092;SDS011;16167;48.768;14.984;2022-09-09T10:34:34;2.05;;;1.00;;
29092;SDS011;16167;48.768;14.984;2022-09-09T10:37:22;3.45;;;1.02;;
29092;SDS011;16167;48.768;14.984;2022-09-09T10:40:02;2.17;;;1.17;;
29092;SDS011;16167;48.768;14.984;2022-09-09T10:42:41;1.13;;;0.80;;
29092;SDS011;16167;48.768;14.984;2022-09-09T10:45:15;1.30;;;0.90;;
29092;SDS011;16167;48.768;14.984;2022-09-09T10:47:50;1.23;;;1.00;;
29092;SDS011;16167;48.768;14.984;2022-09-09T10:50:38;2.83;;;1.88;;
29092;SDS011;16167;48.768;14.984;2022-09-09T10:53:34;1.90;;;1.20;;
29092;SDS011;16167;48.768;14.984;2022-09-09T10:56:06;0.95;;;0.88;;
29092;SDS011;16167;48.768;14.984;2022-09-09T10:58:38;1.60;;;0.88;;
29092;SDS011;16167;48.768;14.984;2022-09-09T11:01:15;4.13;;;1.25;;
29092;SDS011;16167;48.768;14.984;2022-09-09T11:03:49;1.50;;;0.93;;
29092;SDS011;16167;48.768;14.984;2022-09-09T11:06:22;3.35;;;1.17;;
29092;SDS011;16167;48.768;14.984;2022-09-09T11:08:57;1.45;;;1.00;;
29092;SDS011;16167;48.768;14.984;2022-09-09T11:11:29;1.40;;;1.27;;
29092;SDS011;16167;48.768;14.984;2022-09-09T11:14:03;1.38;;;0.90;;
29092;SDS011;16167;48.768;14.984;2022-09-09T11:16:40;2.17;;;1.15;;
29092;SDS011;16167;48.768;14.984;2022-09-09T11:19:15;1.42;;;0.95;;
29092;SDS011;16167;48.768;14.984;2022-09-09T11:21:49;1.45;;;0.90;;
29092;SDS011;16167;48.768;14.984;2022-09-09T11:24:20;2.50;;;1.25;;
29092;SDS011;16167;48.768;14.984;2022-09-09T11:26:51;1.20;;;1.10;;
29092;SDS011;16167;48.768;14.984;2022-09-09T11:29:41;0.90;;;0.90;;
29092;SDS011;16167;48.768;14.984;2022-09-09T11:32:29;1.45;;;1.17;;
29092;SDS011;16167;48.768;14.984;2022-09-09T11:35:21;2.15;;;0.90;;
29092;SDS011;16167;48.768;14.984;2022-09-09T11:38:18;8.65;;;2.05;;
29092;SDS011;16167;48.768;14.984;2022-09-09T11:40:53;6.15;;;1.88;;
29092;SDS011;16167;48.768;14.984;2022-09-09T11:43:30;4.30;;;1.30;;
29092;SDS011;16167;48.768;14.984;2022-09-09T11:46:00;1.98;;;1.58;;
29092;SDS011;16167;48.768;14.984;2022-09-09T11:48:32;4.72;;;1.52;;
29092;SDS011;16167;48.768;14.984;2022-09-09T11:51:03;4.40;;;1.50;;
29092;SDS011;16167;48.768;14.984;2022-09-09T11:53:47;3.47;;;1.80;;
29092;SDS011;16167;48.768;14.984;2022-09-09T11:56:24;1.48;;;1.35;;
29092;SDS011;16167;48.768;14.984;2022-09-09T11:58:55;3.75;;;1.58;;
29092;SDS011;16167;48.768;14.984;2022-09-09T12:01:26;3.95;;;1.48;;
29092;SDS011;16167;48.768;14.984;2022-09-09T12:07:04;1.20;;;1.10;;
29092;SDS011;16167;48.768;14.984;2022-09-09T12:09:50;3.90;;;1.27;;
29092;SDS011;16167;48.768;14.984;2022-09-09T12:12:26;1.38;;;1.20;;
29092;SDS011;16167;48.768;14.984;2022-09-09T12:14:58;1.67;;;1.30;;
29092;SDS011;16167;48.768;14.984;2022-09-09T12:17:29;1.65;;;1.05;;
29092;SDS011;16167;48.768;14.984;2022-09-09T12:20:02;1.40;;;0.80;;
29092;SDS011;16167;48.768;14.984;2022-09-09T12:22:38;4.25;;;1.27;;
29092;SDS011;16167;48.768;14.984;2022-09-09T12:25:17;4.55;;;2.42;;
29092;SDS011;16167;48.768;14.984;2022-09-09T12:27:55;6.03;;;2.35;;
29092;SDS011;16167;48.768;14.984;2022-09-09T12:30:32;4.50;;;1.50;;
29092;SDS011;16167;48.768;14.984;2022-09-09T12:33:08;4.57;;;1.70;;
29092;SDS011;16167;48.768;14.984;2022-09-09T12:35:40;5.55;;;1.35;;
29092;SDS011;16167;48.768;14.984;2022-09-09T12:38:12;2.92;;;1.08;;
29092;SDS011;16167;48.768;14.984;2022-09-09T12:40:53;1.85;;;1.13;;
29092;SDS011;16167;48.768;14.984;2022-09-09T12:43:25;4.43;;;1.45;;
29092;SDS011;16167;48.768;14.984;2022-09-09T12:45:55;1.92;;;1.10;;
29092;SDS011;16167;48.768;14.984;2022-09-09T12:48:29;3.22;;;1.27;;
29092;SDS011;16167;48.768;14.984;2022-09-09T12:51:02;2.80;;;1.30;;
29092;SDS011;16167;48.768;14.984;2022-09-09T12:53:33;2.15;;;1.10;;
29092;SDS011;16167;48.768;14.984;2022-09-09T12:56:03;3.88;;;1.20;;
29092;SDS011;16167;48.768;14.984;2022-09-09T12:58:35;1.67;;;0.98;;
29092;SDS011;16167;48.768;14.984;2022-09-09T13:01:05;1.58;;;1.10;;
29092;SDS011;16167;48.768;14.984;2022-09-09T13:03:41;1.13;;;0.77;;
29092;SDS011;16167;48.768;14.984;2022-09-09T13:06:13;1.58;;;0.90;;
29092;SDS011;16167;48.768;14.984;2022-09-09T13:08:55;0.80;;;0.80;;
29092;SDS011;16167;48.768;14.984;2022-09-09T13:11:25;1.05;;;0.95;;
29092;SDS011;16167;48.768;14.984;2022-09-09T13:13:57;1.67;;;1.30;;
29092;SDS011;16167;48.768;14.984;2022-09-09T13:16:26;2.88;;;1.20;;
29092;SDS011;16167;48.768;14.984;2022-09-09T13:18:58;1.42;;;0.90;;
29092;SDS011;16167;48.768;14.984;2022-09-09T13:21:33;1.10;;;0.80;;
29092;SDS011;16167;48.768;14.984;2022-09-09T13:24:01;6.57;;;1.20;;
29092;SDS011;16167;48.768;14.984;2022-09-09T13:26:32;1.52;;;0.63;;
29092;SDS011;16167;48.768;14.984;2022-09-09T13:29:07;1.83;;;1.00;;
29092;SDS011;16167;48.768;14.984;2022-09-09T13:31:44;3.00;;;0.90;;
29092;SDS011;16167;48.768;14.984;2022-09-09T13:36:46;1.85;;;0.90;;
29092;SDS011;16167;48.768;14.984;2022-09-09T13:39:16;2.88;;;0.82;;
29092;SDS011;16167;48.768;14.984;2022-09-09T13:41:45;0.90;;;0.88;;
29092;SDS011;16167;48.768;14.984;2022-09-09T13:44:17;0.60;;;0.50;;
29092;SDS011;16167;48.768;14.984;2022-09-09T13:46:59;0.95;;;0.68;;
29092;SDS011;16167;48.768;14.984;2022-09-09T13:49:35;1.60;;;0.60;;
29092;SDS011;16167;48.768;14.984;2022-09-09T13:52:05;0.93;;;0.65;;
29092;SDS011;16167;48.768;14.984;2022-09-09T13:54:38;1.55;;;0.80;;
29092;SDS011;16167;48.768;14.984;2022-09-09T13:57:13;3.40;;;1.27;;
29092;SDS011;16167;48.768;14.984;2022-09-09T13:59:44;1.60;;;1.20;;
29092;SDS011;16167;48.768;14.984;2022-09-09T14:02:30;3.03;;;1.10;;
29092;SDS011;16167;48.768;14.984;2022-09-09T14:04:58;0.73;;;0.73;;
29092;SDS011;16167;48.768;14.984;2022-09-09T14:07:27;3.47;;;1.05;;
29092;SDS011;16167;48.768;14.984;2022-09-09T14:12:24;2.13;;;1.75;;
29092;SDS011;16167;48.768;14.984;2022-09-09T14:14:52;2.35;;;1.80;;
29092;SDS011;16167;48.768;14.984;2022-09-09T14:17:20;7.20;;;2.58;;
29092;SDS011;16167;48.768;14.984;2022-09-09T14:19:48;4.68;;;1.88;;
29092;SDS011;16167;48.768;14.984;2022-09-09T14:22:16;3.65;;;1.35;;
29092;SDS011;16167;48.768;14.984;2022-09-09T14:24:46;2.53;;;0.90;;
29092;SDS011;16167;48.768;14.984;2022-09-09T14:27:14;2.30;;;1.23;;
29092;SDS011;16167;48.768;14.984;2022-09-09T14:29:42;1.80;;;1.20;;
29092;SDS011;16167;48.768;14.984;2022-09-09T14:32:10;1.80;;;1.65;;
29092;SDS011;16167;48.768;14.984;2022-09-09T14:34:38;3.05;;;1.55;;
29092;SDS011;16167;48.768;14.984;2022-09-09T14:37:07;3.13;;;1.83;;
29092;SDS011;16167;48.768;14.984;2022-09-09T14:39:35;2.85;;;2.05;;
29092;SDS011;16167;48.768;14.984;2022-09-09T14:42:05;2.60;;;1.73;;
29092;SDS011;16167;48.768;14.984;2022-09-09T14:44:35;1.73;;;1.40;;
29092;SDS011;16167;48.768;14.984;2022-09-09T14:47:04;2.72;;;1.63;;
29092;SDS011;16167;48.768;14.984;2022-09-09T14:49:34;3.75;;;1.40;;
29092;SDS011;16167;48.768;14.984;2022-09-09T14:52:05;4.53;;;1.80;;
29092;SDS011;16167;48.768;14.984;2022-09-09T14:54:35;4.85;;;1.88;;
29092;SDS011;16167;48.768;14.984;2022-09-09T14:57:05;3.47;;;2.22;;
29092;SDS011;16167;48.768;14.984;2022-09-09T14:59:34;3.00;;;1.95;;
29092;SDS011;16167;48.768;14.984;2022-09-09T15:02:02;3.70;;;2.53;;
29092;SDS011;16167;48.768;14.984;2022-09-09T15:04:30;6.85;;;2.80;;
29092;SDS011;16167;48.768;14.984;2022-09-09T15:06:59;4.72;;;2.80;;
29092;SDS011;16167;48.768;14.984;2022-09-09T15:09:27;3.58;;;2.45;;
29092;SDS011;16167;48.768;14.984;2022-09-09T15:11:55;3.42;;;2.17;;
29092;SDS011;16167;48.768;14.984;2022-09-09T15:14:25;5.47;;;2.05;;
29092;SDS011;16167;48.768;14.984;2022-09-09T15:16:53;3.80;;;1.63;;
29092;SDS011;16167;48.768;14.984;2022-09-09T15:19:21;4.45;;;2.00;;
29092;SDS011;16167;48.768;14.984;2022-09-09T15:21:49;4.68;;;2.10;;
29092;SDS011;16167;48.768;14.984;2022-09-09T15:24:17;2.45;;;1.35;;
29092;SDS011;16167;48.768;14.984;2022-09-09T15:26:46;1.48;;;1.02;;
29092;SDS011;16167;48.768;14.984;2022-09-09T15:29:14;1.92;;;0.93;;
29092;SDS011;16167;48.768;14.984;2022-09-09T15:31:43;2.28;;;2.05;;
29092;SDS011;16167;48.768;14.984;2022-09-09T15:34:11;2.42;;;1.23;;
29092;SDS011;16167;48.768;14.984;2022-09-09T15:36:40;1.00;;;0.82;;
29092;SDS011;16167;48.768;14.984;2022-09-09T15:39:10;5.53;;;1.48;;